Time;durP1;ratioP1;P1;durP2;ratioP2;P2;SDS_P1;SDS_P2;PMS_P1;PMS_P2;Temp;Humidity;BMP_temperature;BMP_pressure;BME280_temperature;BME280_humidity;BME280_pressure;Samples;Min_cycle;Max_cycle;Signal;HPM_P1;HPM_P2
2020/12/27 00:01:01;;;;;;;12.23;9.43;;;23.70;99.90;;;;;;4949394;28;20023;-83
2020/12/27 00:03:28;;;;;;;11.93;8.95;;;23.50;99.90;;;;;;4949976;28;20031;-81
2020/12/27 00:05:56;;;;;;;12.50;9.73;;;23.70;99.90;;;;;;4950388;28;20065;-81
2020/12/27 00:08:23;;;;;;;10.45;9.02;;;24.00;99.90;;;;;;4950935;28;20055;-80
2020/12/27 00:10:50;;;;;;;10.77;8.55;;;24.40;99.90;;;;;;4991876;23;20050;-81
2020/12/27 00:13:18;;;;;;;9.00;8.10;;;24.40;99.90;;;;;;4989636;23;20112;-82
2020/12/27 00:15:45;;;;;;;10.25;8.50;;;24.40;99.90;;;;;;4972751;28;20133;-82
2020/12/27 00:18:12;;;;;;;7.53;6.82;;;24.80;99.90;;;;;;4986505;23;20154;-83
2020/12/27 00:20:40;;;;;;;9.13;7.43;;;25.20;99.90;;;;;;4957629;28;20093;-82
2020/12/27 00:23:07;;;;;;;9.05;6.22;;;25.20;99.90;;;;;;4955443;28;20031;-82
2020/12/27 00:28:05;;;;;;;4.18;3.78;;;25.20;99.90;;;;;;4989253;23;20512;-84
2020/12/27 00:30:32;;;;;;;5.05;2.90;;;25.10;99.90;;;;;;4976133;28;20038;-85
2020/12/27 00:32:59;;;;;;;3.00;2.65;;;25.40;99.90;;;;;;4974344;28;20034;-85
2020/12/27 00:35:27;;;;;;;4.53;2.90;;;25.20;99.90;;;;;;4975002;28;20057;-83
2020/12/27 00:37:54;;;;;;;4.95;2.22;;;25.30;99.90;;;;;;4971548;28;20093;-84
2020/12/27 00:40:21;;;;;;;4.28;3.08;;;25.60;99.90;;;;;;4975476;28;20049;-84
2020/12/27 00:42:48;;;;;;;6.68;3.70;;;25.80;99.90;;;;;;4990813;23;20066;-89
2020/12/27 00:45:16;;;;;;;5.35;3.40;;;26.30;99.90;;;;;;4975593;28;20023;-84
2020/12/27 00:47:44;;;;;;;4.28;3.00;;;26.40;99.90;;;;;;4973767;28;20035;-84
2020/12/27 00:50:11;;;;;;;4.85;2.80;;;26.40;99.90;;;;;;4975389;28;20026;-83
2020/12/27 00:52:39;;;;;;;4.43;2.78;;;26.50;99.90;;;;;;4972218;28;20118;-85
2020/12/27 00:55:06;;;;;;;4.35;2.95;;;26.50;99.90;;;;;;4973697;28;20026;-93
2020/12/27 00:57:33;;;;;;;6.38;3.78;;;26.20;99.90;;;;;;4973302;28;20019;-88
2020/12/27 01:00:01;;;;;;;6.72;3.38;;;26.70;99.90;;;;;;4975662;28;20033;-89
2020/12/27 01:02:28;;;;;;;4.90;4.40;;;26.90;99.90;;;;;;4967234;28;20034;-90
2020/12/27 01:04:56;;;;;;;6.60;3.92;;;26.70;99.90;;;;;;4956459;28;20027;-92
2020/12/27 01:07:23;;;;;;;5.30;3.80;;;27.00;99.90;;;;;;4956334;28;20511;-87
2020/12/27 01:09:50;;;;;;;8.30;4.45;;;27.30;99.90;;;;;;4975425;28;20034;-87
2020/12/27 01:12:17;;;;;;;5.38;3.90;;;27.40;99.90;;;;;;4973365;28;20045;-87
2020/12/27 01:14:45;;;;;;;5.63;3.25;;;27.70;99.90;;;;;;4971602;28;20035;-82
2020/12/27 01:17:12;;;;;;;7.00;3.78;;;27.60;99.90;;;;;;4988902;23;20074;-82
2020/12/27 01:19:40;;;;;;;5.57;4.30;;;27.70;99.90;;;;;;4975057;28;20026;-84
2020/12/27 01:22:07;;;;;;;4.43;3.42;;;28.10;99.90;;;;;;4963773;28;20124;-83
2020/12/27 01:24:34;;;;;;;5.82;3.60;;;28.40;99.90;;;;;;4994410;28;20237;-83
2020/12/27 01:27:03;;;;;;;5.75;3.80;;;28.60;99.90;;;;;;4987382;28;20046;-83
2020/12/27 01:29:30;;;;;;;3.70;3.40;;;28.80;99.90;;;;;;4974948;28;20026;-83
2020/12/27 01:32:01;;;;;;;4.63;3.10;;;28.90;99.90;;;;;;4975069;28;20027;-83
2020/12/27 01:34:29;;;;;;;5.22;3.53;;;28.80;99.90;;;;;;4957435;28;20085;-83
2020/12/27 01:36:56;;;;;;;4.88;3.17;;;29.20;99.90;;;;;;4974440;28;20053;-83
2020/12/27 01:39:23;;;;;;;3.53;2.75;;;29.20;99.90;;;;;;4974651;28;20101;-83
2020/12/27 01:41:52;;;;;;;5.68;3.20;;;28.50;99.90;;;;;;4974448;28;20080;-82
2020/12/27 01:44:19;;;;;;;4.68;3.88;;;28.70;99.90;;;;;;4974712;28;20019;-82
2020/12/27 01:46:47;;;;;;;5.60;3.75;;;28.70;99.90;;;;;;4974345;28;20039;-82
2020/12/27 01:49:15;;;;;;;4.40;2.97;;;28.90;99.90;;;;;;4974466;28;20026;-83
2020/12/27 01:51:42;;;;;;;5.50;3.20;;;29.10;99.90;;;;;;4973050;28;20035;-81
2020/12/27 01:54:09;;;;;;;5.35;3.25;;;29.80;99.90;;;;;;4957244;28;20488;-81
2020/12/27 01:56:42;;;;;;;6.30;3.25;;;30.00;99.90;;;;;;4974227;28;20038;-81
2020/12/27 01:59:23;;;;;;;6.75;3.08;;;30.20;99.90;;;;;;4974283;28;20038;-83
2020/12/27 02:01:50;;;;;;;6.10;3.10;;;30.10;99.90;;;;;;4977817;28;20022;-83
2020/12/27 02:04:18;;;;;;;7.15;3.00;;;30.30;99.90;;;;;;4989986;28;20033;-82
2020/12/27 02:06:45;;;;;;;12.05;3.42;;;30.30;99.90;;;;;;4974282;28;20042;-82
2020/12/27 02:09:13;;;;;;;6.60;2.95;;;30.60;99.90;;;;;;4993512;28;20077;-81
2020/12/27 02:11:41;;;;;;;8.68;2.83;;;30.60;99.90;;;;;;4988912;28;20085;-81
2020/12/27 02:14:08;;;;;;;9.15;2.90;;;30.60;99.90;;;;;;4974049;28;20031;-82
2020/12/27 02:16:36;;;;;;;7.00;2.90;;;30.20;99.90;;;;;;4979360;23;20350;-82
2020/12/27 02:19:08;;;;;;;8.40;2.63;;;30.10;99.90;;;;;;4973535;23;20054;-82
2020/12/27 02:21:35;;;;;;;8.18;2.83;;;30.30;99.90;;;;;;4979155;23;20047;-82
2020/12/27 02:24:03;;;;;;;5.95;2.17;;;30.10;99.90;;;;;;4963454;23;20034;-80
2020/12/27 02:26:30;;;;;;;8.60;2.67;;;30.40;99.90;;;;;;4971265;28;20043;-81
2020/12/27 02:28:58;;;;;;;8.32;2.33;;;30.20;99.90;;;;;;4972257;28;20090;-81
2020/12/27 02:31:27;;;;;;;7.45;2.92;;;29.90;99.90;;;;;;4970376;28;20018;-82
2020/12/27 02:33:57;;;;;;;6.35;2.42;;;29.60;99.90;;;;;;4979883;23;20570;-81
2020/12/27 02:36:24;;;;;;;7.20;2.45;;;29.90;99.90;;;;;;4954747;28;20404;-82
2020/12/27 02:38:52;;;;;;;7.47;2.95;;;30.10;99.90;;;;;;4972661;28;20027;-82
2020/12/27 02:41:24;;;;;;;5.10;2.67;;;30.00;99.90;;;;;;4972489;28;20072;-82
2020/12/27 02:43:51;;;;;;;12.48;2.70;;;29.90;99.90;;;;;;4954355;29;20050;-82
2020/12/27 02:46:24;;;;;;;6.97;2.05;;;29.40;99.90;;;;;;4953689;28;20174;-82
2020/12/27 02:48:52;;;;;;;4.47;2.13;;;29.60;99.90;;;;;;4954168;28;20488;-82
2020/12/27 02:51:23;;;;;;;10.90;2.80;;;29.80;99.90;;;;;;4975775;23;20109;-82
2020/12/27 02:53:51;;;;;;;8.25;2.53;;;29.70;99.90;;;;;;4971712;28;20033;-81
2020/12/27 02:56:20;;;;;;;4.35;2.15;;;29.80;99.90;;;;;;4972063;28;20081;-82
2020/12/27 02:58:48;;;;;;;5.40;1.75;;;29.90;99.90;;;;;;4972773;28;20081;-83
2020/12/27 03:01:15;;;;;;;6.82;2.40;;;29.90;99.90;;;;;;4972623;28;20029;-81
2020/12/27 03:03:43;;;;;;;3.90;1.85;;;29.50;99.90;;;;;;4970421;28;20034;-82
2020/12/27 03:06:12;;;;;;;6.45;2.00;;;29.40;99.90;;;;;;4972332;28;20377;-83
2020/12/27 03:08:40;;;;;;;5.38;2.15;;;29.00;99.90;;;;;;4969952;28;20432;-83
2020/12/27 03:11:08;;;;;;;8.55;2.40;;;28.70;99.90;;;;;;4956221;28;20023;-82
2020/12/27 03:13:35;;;;;;;6.03;2.25;;;28.80;99.90;;;;;;4971222;28;20049;-82
2020/12/27 03:16:05;;;;;;;3.33;1.42;;;28.70;99.90;;;;;;4973887;28;20027;-82
2020/12/27 03:18:33;;;;;;;3.83;1.60;;;28.80;99.90;;;;;;4970873;28;20031;-82
2020/12/27 03:21:01;;;;;;;4.05;2.20;;;28.20;99.90;;;;;;4973139;28;20031;-83
2020/12/27 03:23:28;;;;;;;5.15;1.55;;;28.20;99.90;;;;;;4994906;23;20050;-82
2020/12/27 03:25:55;;;;;;;5.53;2.05;;;28.20;99.90;;;;;;4975078;28;20487;-82
2020/12/27 03:28:23;;;;;;;2.80;1.15;;;28.20;99.90;;;;;;4974349;28;20042;-81
2020/12/27 03:30:50;;;;;;;9.18;1.77;;;28.30;99.90;;;;;;4972623;28;20057;-81
2020/12/27 03:33:17;;;;;;;6.75;1.95;;;28.30;99.90;;;;;;4972548;28;20111;-81
2020/12/27 03:35:44;;;;;;;4.43;1.77;;;28.20;99.90;;;;;;4973010;28;20027;-82
2020/12/27 03:38:12;;;;;;;6.00;1.42;;;28.30;99.90;;;;;;4972473;28;20071;-82
2020/12/27 03:40:40;;;;;;;4.72;1.67;;;28.20;99.90;;;;;;4972872;28;20023;-81
2020/12/27 03:43:07;;;;;;;5.20;1.58;;;28.10;99.90;;;;;;4972235;28;20046;-82
2020/12/27 03:45:34;;;;;;;5.55;1.20;;;27.90;99.90;;;;;;4971451;28;20049;-80
2020/12/27 03:48:02;;;;;;;4.85;1.20;;;27.80;99.90;;;;;;4975197;28;20035;-81
2020/12/27 03:50:29;;;;;;;2.65;1.23;;;27.80;99.90;;;;;;4976681;28;20162;-81
2020/12/27 03:52:56;;;;;;;5.68;1.40;;;27.70;99.90;;;;;;4976217;28;20046;-83
2020/12/27 03:55:24;;;;;;;5.28;1.45;;;27.70;99.90;;;;;;4976697;28;20030;-82
2020/12/27 03:57:51;;;;;;;3.42;1.50;;;27.70;99.90;;;;;;4970484;28;20039;-82
2020/12/27 04:00:19;;;;;;;3.35;1.27;;;27.70;99.90;;;;;;4996195;28;20026;-83
2020/12/27 04:02:47;;;;;;;3.63;1.38;;;27.30;99.90;;;;;;4983423;28;20027;-84
2020/12/27 04:05:14;;;;;;;5.13;2.25;;;27.10;99.90;;;;;;4977596;28;20086;-83
2020/12/27 04:07:41;;;;;;;6.55;1.77;;;26.90;99.90;;;;;;4975964;28;20023;-81
2020/12/27 04:10:09;;;;;;;6.25;1.55;;;26.80;99.90;;;;;;4976394;28;20014;-83
2020/12/27 04:12:36;;;;;;;12.85;2.47;;;26.80;99.90;;;;;;4968531;28;20254;-83
2020/12/27 04:15:04;;;;;;;5.72;1.65;;;26.70;99.90;;;;;;4995744;28;20403;-82
2020/12/27 04:17:31;;;;;;;4.25;1.75;;;26.80;99.90;;;;;;4984274;28;20089;-84
2020/12/27 04:19:58;;;;;;;4.75;1.88;;;26.80;99.90;;;;;;4975982;28;20035;-84
2020/12/27 04:22:26;;;;;;;3.53;1.40;;;26.70;99.90;;;;;;4962525;28;20026;-83
2020/12/27 04:24:53;;;;;;;3.85;1.55;;;26.10;99.90;;;;;;5000113;23;20070;-81
2020/12/27 04:27:20;;;;;;;9.20;1.67;;;26.20;99.90;;;;;;4996218;23;20104;-80
2020/12/27 04:29:48;;;;;;;4.47;1.52;;;26.10;99.90;;;;;;4995666;28;20073;-85
2020/12/27 04:32:15;;;;;;;8.45;1.52;;;26.40;99.90;;;;;;5000587;23;20507;-79
2020/12/27 04:34:42;;;;;;;4.93;1.40;;;26.70;99.90;;;;;;4976091;28;20047;-79
2020/12/27 04:37:09;;;;;;;5.75;1.90;;;26.60;99.90;;;;;;4973757;28;20488;-80
2020/12/27 04:39:37;;;;;;;2.88;0.98;;;26.60;99.90;;;;;;4958418;28;20035;-82
2020/12/27 04:42:04;;;;;;;4.05;1.30;;;26.50;99.90;;;;;;4981218;23;20073;-82
2020/12/27 04:44:34;;;;;;;2.85;1.50;;;26.50;99.90;;;;;;4995012;28;20026;-81
2020/12/27 04:47:03;;;;;;;3.88;1.40;;;26.60;99.90;;;;;;4993356;28;20026;-80
2020/12/27 04:49:30;;;;;;;3.00;1.48;;;26.40;99.90;;;;;;4995112;28;20077;-81
2020/12/27 04:52:01;;;;;;;3.60;1.45;;;26.40;99.90;;;;;;4988633;28;20030;-82
2020/12/27 04:54:29;;;;;;;5.07;1.23;;;26.40;99.90;;;;;;4975434;28;20089;-84
2020/12/27 04:56:57;;;;;;;2.22;1.23;;;26.40;99.90;;;;;;4981395;23;20058;-82
2020/12/27 04:59:24;;;;;;;3.25;1.90;;;26.30;99.90;;;;;;4973745;28;20027;-82
2020/12/27 05:01:53;;;;;;;3.30;1.30;;;26.40;99.90;;;;;;4956874;28;20030;-81
2020/12/27 05:04:25;;;;;;;3.28;1.20;;;26.30;99.90;;;;;;4973381;28;20030;-81
2020/12/27 05:06:56;;;;;;;2.88;1.20;;;26.30;99.90;;;;;;4956862;28;20388;-81
2020/12/27 05:09:27;;;;;;;5.25;1.90;;;26.30;99.90;;;;;;4975374;28;20023;-81
2020/12/27 05:11:56;;;;;;;3.58;1.42;;;26.20;99.90;;;;;;4957324;28;20031;-81
2020/12/27 05:14:30;;;;;;;3.28;1.40;;;26.20;99.90;;;;;;4975262;28;20030;-82
2020/12/27 05:17:01;;;;;;;3.30;1.33;;;26.10;99.90;;;;;;4972750;28;20503;-81
2020/12/27 05:19:28;;;;;;;3.85;1.38;;;26.30;99.90;;;;;;4974954;28;20023;-81
2020/12/27 05:22:13;;;;;;;2.88;1.23;;;26.20;99.90;;;;;;4973315;28;20515;-80
2020/12/27 05:24:40;;;;;;;3.17;1.35;;;26.30;99.90;;;;;;4957786;28;20023;-81
2020/12/27 05:27:13;;;;;;;4.60;1.40;;;26.40;99.90;;;;;;4973031;28;20022;-82
2020/12/27 05:29:42;;;;;;;6.82;1.23;;;26.30;99.90;;;;;;4974969;28;20027;-80
2020/12/27 05:32:11;;;;;;;1.95;0.90;;;26.30;99.90;;;;;;4960181;23;20085;-81
2020/12/27 05:34:39;;;;;;;3.25;1.48;;;26.30;99.90;;;;;;4955805;28;20023;-81
2020/12/27 05:37:07;;;;;;;4.82;1.15;;;26.50;99.90;;;;;;4933008;28;20047;-82
2020/12/27 05:39:35;;;;;;;2.97;1.10;;;26.50;99.90;;;;;;4955462;28;20365;-82
2020/12/27 05:42:07;;;;;;;2.15;1.00;;;26.50;99.90;;;;;;4953333;28;20030;-82
2020/12/27 05:44:37;;;;;;;4.43;1.23;;;26.60;99.90;;;;;;4955185;28;20022;-82
2020/12/27 05:47:05;;;;;;;5.68;1.10;;;26.60;99.90;;;;;;4953042;28;20389;-81
2020/12/27 05:49:32;;;;;;;4.30;1.60;;;26.60;99.90;;;;;;4938252;29;20453;-81
2020/12/27 05:52:08;;;;;;;5.07;1.23;;;26.70;99.90;;;;;;4937635;29;20031;-82
2020/12/27 05:54:36;;;;;;;4.88;1.20;;;26.70;99.90;;;;;;4938069;28;20027;-83
2020/12/27 05:57:05;;;;;;;3.45;1.23;;;26.70;99.90;;;;;;4952893;28;20039;-83
2020/12/27 05:59:35;;;;;;;3.70;1.00;;;26.70;99.90;;;;;;4954908;28;20019;-83
2020/12/27 06:02:03;;;;;;;6.43;1.00;;;26.70;99.90;;;;;;4952855;28;20559;-82
2020/12/27 06:04:39;;;;;;;4.43;1.13;;;26.60;99.90;;;;;;4952923;28;20023;-82
2020/12/27 06:07:07;;;;;;;2.65;0.90;;;26.50;99.90;;;;;;4936628;28;20035;-86
2020/12/27 06:10:06;;;;;;;2.05;0.70;;;26.50;99.90;;;;;;4954121;28;20015;-81
2020/12/27 06:12:52;;;;;;;2.72;1.08;;;26.50;99.90;;;;;;4952812;29;20031;-82
2020/12/27 06:15:31;;;;;;;6.07;1.10;;;26.50;99.90;;;;;;4951700;28;20027;-82
2020/12/27 06:18:11;;;;;;;3.90;1.52;;;26.40;99.90;;;;;;4952371;28;20035;-82
2020/12/27 06:20:40;;;;;;;3.60;0.88;;;26.40;99.90;;;;;;4953751;28;20034;-82
2020/12/27 06:23:09;;;;;;;6.85;1.27;;;26.50;99.90;;;;;;4939907;28;20035;-82
2020/12/27 06:25:38;;;;;;;4.70;1.38;;;26.40;99.90;;;;;;4964591;28;20423;-82
2020/12/27 06:28:06;;;;;;;2.42;0.85;;;26.30;99.90;;;;;;4952156;28;20044;-82
2020/12/27 06:30:39;;;;;;;4.00;0.73;;;26.20;99.90;;;;;;4962100;23;20115;-80
2020/12/27 06:33:15;;;;;;;2.05;1.00;;;26.30;99.90;;;;;;4974448;23;20120;-79
2020/12/27 06:35:45;;;;;;;6.53;0.95;;;26.30;99.90;;;;;;4989632;23;20130;-77
2020/12/27 06:40:40;;;;;;;3.60;1.00;;;26.10;99.90;;;;;;4997550;23;20431;-79
2020/12/27 06:43:21;;;;;;;4.35;1.00;;;26.20;99.90;;;;;;4977612;28;20562;-77
2020/12/27 06:45:49;;;;;;;2.40;0.90;;;26.10;99.90;;;;;;4973645;28;20115;-78
2020/12/27 06:48:34;;;;;;;4.32;1.08;;;26.00;99.90;;;;;;4990120;23;20452;-77
2020/12/27 06:51:01;;;;;;;6.32;1.17;;;25.80;99.90;;;;;;4977489;28;20033;-76
2020/12/27 06:53:39;;;;;;;3.85;1.33;;;25.80;99.90;;;;;;4972152;28;20030;-78
2020/12/27 06:56:08;;;;;;;2.67;0.85;;;25.70;99.90;;;;;;4982448;28;20026;-79
2020/12/27 06:58:36;;;;;;;5.20;1.45;;;25.60;99.90;;;;;;4973306;28;20488;-77
2020/12/27 07:01:15;;;;;;;1.83;0.90;;;25.50;99.90;;;;;;4972895;28;20051;-78
2020/12/27 07:03:44;;;;;;;2.90;1.30;;;25.40;99.90;;;;;;4981047;23;20353;-76
2020/12/27 07:06:25;;;;;;;2.03;1.17;;;25.40;99.90;;;;;;4953314;28;20046;-76
2020/12/27 07:08:58;;;;;;;3.17;0.90;;;25.40;99.90;;;;;;4940066;28;20110;-77
2020/12/27 07:11:29;;;;;;;2.70;1.02;;;25.30;99.90;;;;;;4947113;28;21033;-78
2020/12/27 07:13:57;;;;;;;2.80;1.10;;;25.30;99.90;;;;;;4932880;29;20082;-78
2020/12/27 07:16:48;;;;;;;4.35;1.17;;;25.30;99.90;;;;;;4946304;29;20039;-78
2020/12/27 07:19:19;;;;;;;2.85;0.90;;;25.20;99.90;;;;;;4950896;28;20019;-77
2020/12/27 07:21:47;;;;;;;5.28;1.00;;;25.10;99.90;;;;;;4953377;28;20513;-77
2020/12/27 07:24:22;;;;;;;3.25;1.52;;;25.10;99.90;;;;;;4953334;28;20105;-77
2020/12/27 07:26:50;;;;;;;4.15;1.42;;;25.00;99.90;;;;;;4950632;29;20027;-77
2020/12/27 07:29:20;;;;;;;5.47;1.30;;;25.10;99.90;;;;;;4953490;28;20102;-77
2020/12/27 07:31:50;;;;;;;3.03;1.05;;;25.00;99.90;;;;;;4953440;29;20027;-78
2020/12/27 07:34:21;;;;;;;3.25;1.33;;;24.90;99.90;;;;;;4953196;29;20032;-78
2020/12/27 07:39:15;;;;;;;2.88;1.13;;;24.90;99.90;;;;;;4998338;23;20057;-78
2020/12/27 07:41:43;;;;;;;5.85;1.17;;;24.90;99.90;;;;;;4988396;28;20026;-79
2020/12/27 07:44:15;;;;;;;3.70;0.90;;;24.80;99.90;;;;;;4972588;28;20014;-80
2020/12/27 07:46:43;;;;;;;4.95;0.73;;;24.80;99.90;;;;;;4973025;28;20030;-79
2020/12/27 07:49:14;;;;;;;4.82;1.23;;;24.70;99.90;;;;;;4972137;28;20166;-80
2020/12/27 07:51:41;;;;;;;2.63;0.90;;;24.70;99.90;;;;;;4979273;28;20105;-80
2020/12/27 07:54:13;;;;;;;5.82;1.00;;;24.60;99.90;;;;;;4970121;28;20041;-80
2020/12/27 07:56:43;;;;;;;4.30;0.90;;;24.60;99.90;;;;;;4992204;28;20034;-81
2020/12/27 07:59:11;;;;;;;3.58;1.00;;;24.60;99.90;;;;;;4981852;28;20484;-81
2020/12/27 08:01:38;;;;;;;4.35;1.23;;;24.60;99.90;;;;;;4972264;28;20500;-81
2020/12/27 08:04:07;;;;;;;7.65;1.05;;;24.50;99.90;;;;;;4972420;28;20015;-81
2020/12/27 08:06:40;;;;;;;3.30;0.82;;;24.50;99.90;;;;;;4955098;28;20038;-81
2020/12/27 08:09:10;;;;;;;5.88;0.90;;;24.60;99.90;;;;;;4980788;28;20026;-80
2020/12/27 08:11:42;;;;;;;2.78;1.17;;;24.60;99.90;;;;;;4973634;28;20081;-80
2020/12/27 08:14:11;;;;;;;6.05;1.52;;;24.50;99.90;;;;;;4972427;28;20029;-81
2020/12/27 08:16:40;;;;;;;5.10;1.13;;;24.50;99.90;;;;;;4972342;28;20105;-81
2020/12/27 08:19:15;;;;;;;4.43;1.10;;;24.50;99.90;;;;;;4972039;28;20061;-80
2020/12/27 08:21:43;;;;;;;3.80;1.23;;;24.50;99.90;;;;;;4990481;28;20026;-79
2020/12/27 08:24:12;;;;;;;4.55;1.35;;;24.50;99.90;;;;;;4990595;28;20034;-80
2020/12/27 08:26:42;;;;;;;4.45;1.00;;;24.50;99.90;;;;;;4991596;28;20037;-79
2020/12/27 08:29:11;;;;;;;3.85;1.13;;;24.40;99.90;;;;;;4975201;28;20042;-79
2020/12/27 08:31:39;;;;;;;2.88;0.77;;;24.40;99.90;;;;;;4971975;28;20031;-79
2020/12/27 08:34:11;;;;;;;4.75;1.48;;;24.40;99.90;;;;;;4974719;28;20039;-80
2020/12/27 08:36:40;;;;;;;3.70;0.90;;;24.40;99.90;;;;;;4990778;28;20038;-78
2020/12/27 08:39:25;;;;;;;3.42;1.02;;;24.40;99.90;;;;;;5008750;23;22014;-79
2020/12/27 08:42:08;;;;;;;4.03;1.20;;;24.40;99.90;;;;;;4996602;23;20078;-80
2020/12/27 08:44:49;;;;;;;6.32;1.02;;;24.30;99.90;;;;;;4975439;28;20041;-79
2020/12/27 08:47:25;;;;;;;8.93;1.02;;;24.30;99.90;;;;;;4984283;23;20058;-79
2020/12/27 08:50:08;;;;;;;3.17;0.85;;;24.30;99.90;;;;;;4944096;29;20036;-80
2020/12/27 08:52:36;;;;;;;2.92;1.15;;;24.20;99.90;;;;;;4956332;29;20027;-79
2020/12/27 08:55:13;;;;;;;3.80;0.68;;;24.20;99.90;;;;;;4986841;23;20058;-80
2020/12/27 08:57:43;;;;;;;2.47;0.88;;;24.30;99.90;;;;;;4992849;28;20042;-79
2020/12/27 09:00:12;;;;;;;3.42;1.15;;;24.20;99.90;;;;;;4975786;28;20027;-79
2020/12/27 09:02:40;;;;;;;6.40;0.88;;;24.20;99.90;;;;;;4969223;28;20038;-79
2020/12/27 09:05:12;;;;;;;4.60;1.25;;;24.20;99.90;;;;;;4995193;28;20018;-80
2020/12/27 09:07:45;;;;;;;3.63;0.73;;;24.20;99.90;;;;;;4960778;28;20042;-80
2020/12/27 09:10:22;;;;;;;3.03;0.70;;;24.20;99.90;;;;;;4979270;28;20037;-80
2020/12/27 09:12:57;;;;;;;6.15;1.35;;;24.20;99.90;;;;;;4990289;23;20078;-78
2020/12/27 09:15:34;;;;;;;3.53;0.98;;;24.20;99.90;;;;;;4995161;28;20026;-78
2020/12/27 09:18:09;;;;;;;3.53;0.60;;;24.20;99.90;;;;;;4994042;28;20488;-79
2020/12/27 09:20:42;;;;;;;6.18;0.93;;;24.20;99.90;;;;;;4988553;28;20403;-77
2020/12/27 09:23:16;;;;;;;3.63;0.82;;;24.20;99.90;;;;;;4974956;28;20122;-78
2020/12/27 09:25:44;;;;;;;2.55;0.80;;;24.20;99.90;;;;;;4975223;28;20019;-78
2020/12/27 09:28:16;;;;;;;4.03;0.80;;;24.20;99.90;;;;;;4974475;28;20487;-80
2020/12/27 09:30:45;;;;;;;3.63;0.77;;;24.20;99.90;;;;;;4961021;28;20468;-77
2020/12/27 09:33:12;;;;;;;4.40;1.33;;;24.20;99.90;;;;;;4974856;28;20030;-77
2020/12/27 09:35:40;;;;;;;6.28;1.10;;;24.10;99.90;;;;;;4957638;28;20042;-78
2020/12/27 09:38:26;;;;;;;4.05;0.90;;;24.10;99.90;;;;;;4981841;28;20050;-82
2020/12/27 09:41:10;;;;;;;4.10;0.50;;;24.10;99.90;;;;;;4975920;28;20035;-80
2020/12/27 09:46:48;;;;;;;6.22;0.75;;;24.20;99.90;;;;;;4981414;23;20047;-82
2020/12/27 09:49:24;;;;;;;2.63;0.70;;;24.20;99.90;;;;;;4971701;28;20065;-80
2020/12/27 09:52:15;;;;;;;4.45;0.70;;;24.20;99.90;;;;;;4966309;28;20031;-78
2020/12/27 09:54:43;;;;;;;9.20;1.20;;;24.20;99.90;;;;;;4967402;28;20053;-78
2020/12/27 09:57:19;;;;;;;5.20;1.55;;;24.30;99.90;;;;;;4973330;28;20118;-82
2020/12/27 09:59:49;;;;;;;2.78;0.65;;;24.30;99.90;;;;;;4950324;28;20424;-79
2020/12/27 10:02:17;;;;;;;1.98;0.90;;;24.30;99.90;;;;;;4973272;28;20030;-78
2020/12/27 10:04:45;;;;;;;5.97;1.00;;;24.30;99.90;;;;;;4975074;28;20038;-81
2020/12/27 10:07:12;;;;;;;4.65;0.90;;;24.30;99.90;;;;;;4971605;28;20065;-80
2020/12/27 10:09:40;;;;;;;3.70;0.75;;;24.20;99.90;;;;;;4956836;28;20538;-80
2020/12/27 10:12:07;;;;;;;5.30;1.13;;;24.30;99.90;;;;;;4974722;28;20023;-80
2020/12/27 10:14:35;;;;;;;5.80;0.98;;;24.40;99.90;;;;;;4962008;28;20058;-81
2020/12/27 10:17:02;;;;;;;4.68;0.98;;;24.40;99.90;;;;;;4960219;28;20035;-80
2020/12/27 10:19:30;;;;;;;3.90;0.90;;;24.40;99.90;;;;;;4963473;28;20121;-80
2020/12/27 10:21:58;;;;;;;8.60;0.93;;;24.50;99.90;;;;;;4957011;28;20027;-80
2020/12/27 10:24:31;;;;;;;4.20;0.75;;;24.50;99.90;;;;;;4955002;28;20019;-79
2020/12/27 10:27:00;;;;;;;5.40;1.35;;;24.50;99.90;;;;;;4969038;28;20023;-80
2020/12/27 10:29:28;;;;;;;4.65;0.85;;;24.40;99.90;;;;;;4955408;28;20038;-80
2020/12/27 10:31:57;;;;;;;4.82;0.90;;;24.40;99.90;;;;;;4968559;28;20027;-80
2020/12/27 10:34:25;;;;;;;3.33;0.70;;;24.40;99.90;;;;;;4947408;28;20130;-78
2020/12/27 10:36:54;;;;;;;11.80;2.28;;;24.30;99.90;;;;;;4961934;28;20068;-79
2020/12/27 10:39:22;;;;;;;4.63;1.02;;;24.30;99.90;;;;;;4954949;28;20041;-78
2020/12/27 10:41:51;;;;;;;8.07;1.60;;;24.20;99.90;;;;;;4974146;28;20090;-80
2020/12/27 10:44:19;;;;;;;5.10;0.90;;;24.20;99.90;;;;;;4969263;28;20038;-78
2020/12/27 10:46:46;;;;;;;4.68;1.15;;;24.20;99.90;;;;;;4996229;23;20050;-81
2020/12/27 10:49:13;;;;;;;5.90;1.00;;;24.10;99.90;;;;;;4991405;23;20051;-81
2020/12/27 10:51:41;;;;;;;8.55;1.92;;;24.10;99.90;;;;;;4982341;28;20506;-80
2020/12/27 10:54:11;;;;;;;8.23;2.08;;;24.10;99.90;;;;;;4993729;23;20071;-80
2020/12/27 10:56:41;;;;;;;5.00;1.10;;;24.10;99.90;;;;;;4978673;28;20030;-79
2020/12/27 10:59:09;;;;;;;7.35;1.58;;;24.10;99.90;;;;;;4951647;28;20027;-82
2020/12/27 11:01:36;;;;;;;6.72;1.70;;;24.10;99.90;;;;;;4953356;23;20034;-80
2020/12/27 11:04:03;;;;;;;6.45;1.30;;;24.10;99.90;;;;;;4980640;28;20050;-81
2020/12/27 11:06:34;;;;;;;6.72;1.48;;;24.10;99.90;;;;;;4958795;28;20118;-80
2020/12/27 11:09:01;;;;;;;5.93;1.13;;;24.10;99.90;;;;;;4972096;28;20035;-81
2020/12/27 11:11:28;;;;;;;6.75;1.92;;;24.00;99.90;;;;;;4976138;28;20026;-80
2020/12/27 11:13:55;;;;;;;9.60;2.00;;;24.00;99.90;;;;;;4981721;28;20030;-81
2020/12/27 11:16:23;;;;;;;8.90;2.10;;;23.90;99.90;;;;;;4977741;28;20030;-81
2020/12/27 11:18:50;;;;;;;11.32;1.60;;;23.90;99.90;;;;;;4992850;23;20117;-81
2020/12/27 11:21:17;;;;;;;4.68;1.05;;;23.90;99.90;;;;;;4971215;28;20067;-80
2020/12/27 11:23:45;;;;;;;7.25;1.05;;;23.90;99.90;;;;;;4954352;28;20034;-80
2020/12/27 11:26:16;;;;;;;7.22;1.30;;;23.80;99.90;;;;;;4971735;28;20105;-80
2020/12/27 11:28:43;;;;;;;8.90;1.88;;;23.90;99.90;;;;;;4968821;28;20031;-78
2020/12/27 11:31:11;;;;;;;4.53;0.82;;;23.90;99.90;;;;;;4972069;28;20086;-79
2020/12/27 11:33:38;;;;;;;4.35;1.00;;;24.00;99.90;;;;;;4970618;28;20117;-79
2020/12/27 11:36:05;;;;;;;3.50;0.90;;;24.00;99.90;;;;;;4955072;28;20041;-79
2020/12/27 11:38:33;;;;;;;5.78;1.08;;;24.00;99.90;;;;;;4969557;28;21923;-79
2020/12/27 11:41:00;;;;;;;6.78;1.20;;;24.00;99.90;;;;;;4972208;28;20023;-79
2020/12/27 11:43:27;;;;;;;7.28;1.73;;;23.90;99.90;;;;;;4968614;28;20022;-79
2020/12/27 11:45:54;;;;;;;4.10;1.10;;;23.90;99.90;;;;;;4970350;28;20034;-79
2020/12/27 11:48:22;;;;;;;6.43;1.20;;;23.80;99.90;;;;;;4970219;28;20045;-79
2020/12/27 11:50:49;;;;;;;6.57;1.73;;;23.90;99.90;;;;;;4969042;28;20034;-79
2020/12/27 11:53:16;;;;;;;8.70;1.52;;;23.80;99.90;;;;;;4989397;23;20113;-79
2020/12/27 11:55:44;;;;;;;4.25;1.52;;;23.80;99.90;;;;;;4957472;28;20065;-79
2020/12/27 11:58:11;;;;;;;5.93;1.27;;;23.80;99.90;;;;;;4966478;28;20050;-79
2020/12/27 12:00:38;;;;;;;5.68;1.13;;;23.80;99.90;;;;;;4989483;28;20022;-78
2020/12/27 12:03:05;;;;;;;4.93;1.48;;;23.70;99.90;;;;;;4971200;28;20484;-79
2020/12/27 12:05:33;;;;;;;7.28;1.52;;;23.70;99.90;;;;;;4969924;28;20113;-79
2020/12/27 12:08:00;;;;;;;7.28;1.17;;;23.80;99.90;;;;;;4958131;28;20031;-79
2020/12/27 12:10:28;;;;;;;4.90;1.77;;;23.70;99.90;;;;;;4968418;28;20031;-78
2020/12/27 12:12:55;;;;;;;7.90;1.58;;;23.70;99.90;;;;;;4972928;28;20022;-79
2020/12/27 12:15:22;;;;;;;6.35;1.45;;;23.70;99.90;;;;;;4958615;28;20031;-79
2020/12/27 12:17:50;;;;;;;5.43;1.05;;;23.70;99.90;;;;;;4962448;28;20043;-79
2020/12/27 12:23:02;;;;;;;1.90;0.77;;;23.70;99.90;;;;;;4976258;28;20407;-79
2020/12/27 12:25:29;;;;;;;5.57;0.90;;;23.80;99.90;;;;;;4975931;28;20025;-79
2020/12/27 12:27:56;;;;;;;5.03;1.10;;;23.70;99.90;;;;;;4987804;28;20109;-79
2020/12/27 12:30:24;;;;;;;3.50;1.02;;;23.70;99.90;;;;;;4985544;28;20084;-79
2020/12/27 12:32:52;;;;;;;5.57;1.35;;;23.70;99.90;;;;;;4961134;28;20174;-79
2020/12/27 12:35:19;;;;;;;4.63;1.08;;;23.70;99.90;;;;;;4975659;28;20019;-79
2020/12/27 12:37:47;;;;;;;3.67;1.15;;;23.70;99.90;;;;;;4982840;28;20065;-79
2020/12/27 12:40:14;;;;;;;4.25;0.80;;;23.60;99.90;;;;;;4994887;28;20038;-79
2020/12/27 12:42:41;;;;;;;5.30;1.45;;;23.60;99.90;;;;;;4970724;28;20046;-79
2020/12/27 12:45:09;;;;;;;3.83;1.50;;;23.60;99.90;;;;;;4973969;28;20092;-79
2020/12/27 12:47:36;;;;;;;2.60;1.27;;;23.60;99.90;;;;;;4984937;28;20030;-79
2020/12/27 12:50:05;;;;;;;4.50;1.33;;;23.50;99.90;;;;;;4976736;28;20038;-79
2020/12/27 12:52:32;;;;;;;3.38;1.05;;;23.50;99.90;;;;;;4991078;23;20116;-79
2020/12/27 12:55:01;;;;;;;2.88;1.02;;;23.40;99.90;;;;;;4999463;23;20054;-79
2020/12/27 12:57:28;;;;;;;5.85;1.27;;;23.50;99.90;;;;;;4889647;23;2006881;-79
2020/12/27 12:59:56;;;;;;;3.85;1.08;;;23.40;99.90;;;;;;4982426;23;20118;-79
2020/12/27 13:02:23;;;;;;;5.40;1.20;;;23.40;99.90;;;;;;4967954;28;20050;-79
2020/12/27 13:04:50;;;;;;;2.90;1.08;;;23.40;99.90;;;;;;4971405;28;20109;-79
2020/12/27 13:07:19;;;;;;;3.08;1.05;;;23.30;99.90;;;;;;4969511;28;20038;-79
2020/12/27 13:09:46;;;;;;;4.28;1.33;;;23.30;99.90;;;;;;4990999;23;20129;-79